sensor_id;sensor_type;location;lat;lon;timestamp;P1;durP1;ratioP1;P2;durP2;ratioP2
7661;SDS011;30314;48.184;11.510;2023-12-20T00:01:01;3.90;;;1.63;;
7661;SDS011;30314;48.184;11.510;2023-12-20T00:03:28;5.07;;;2.27;;
7661;SDS011;30314;48.184;11.510;2023-12-20T00:06:06;3.53;;;1.83;;
7661;SDS011;30314;48.184;11.510;2023-12-20T00:08:33;3.43;;;1.97;;
7661;SDS011;30314;48.184;11.510;2023-12-20T00:10:59;2.37;;;1.50;;
7661;SDS011;30314;48.184;11.510;2023-12-20T00:13:26;2.93;;;1.80;;
7661;SDS011;30314;48.184;11.510;2023-12-20T00:15:52;4.00;;;2.03;;
7661;SDS011;30314;48.184;11.510;2023-12-20T00:18:19;3.20;;;1.80;;
7661;SDS011;30314;48.184;11.510;2023-12-20T00:20:46;3.97;;;1.53;;
7661;SDS011;30314;48.184;11.510;2023-12-20T00:23:12;3.03;;;1.40;;
7661;SDS011;30314;48.184;11.510;2023-12-20T00:25:39;2.20;;;1.10;;
7661;SDS011;30314;48.184;11.510;2023-12-20T00:28:05;3.30;;;1.93;;
7661;SDS011;30314;48.184;11.510;2023-12-20T00:30:32;3.83;;;2.10;;
7661;SDS011;30314;48.184;11.510;2023-12-20T00:32:59;2.50;;;1.33;;
7661;SDS011;30314;48.184;11.510;2023-12-20T00:35:26;1.83;;;1.20;;
7661;SDS011;30314;48.184;11.510;2023-12-20T00:37:53;3.40;;;2.10;;
7661;SDS011;30314;48.184;11.510;2023-12-20T00:40:19;2.70;;;1.43;;
7661;SDS011;30314;48.184;11.510;2023-12-20T00:42:47;3.03;;;1.70;;
7661;SDS011;30314;48.184;11.510;2023-12-20T00:45:14;2.13;;;1.17;;
7661;SDS011;30314;48.184;11.510;2023-12-20T00:47:40;2.47;;;1.63;;
7661;SDS011;30314;48.184;11.510;2023-12-20T00:50:08;1.73;;;0.93;;
7661;SDS011;30314;48.184;11.510;2023-12-20T00:52:35;1.87;;;1.13;;
7661;SDS011;30314;48.184;11.510;2023-12-20T00:55:02;2.63;;;1.40;;
7661;SDS011;30314;48.184;11.510;2023-12-20T00:57:30;3.37;;;1.40;;
7661;SDS011;30314;48.184;11.510;2023-12-20T00:59:57;1.70;;;1.10;;
7661;SDS011;30314;48.184;11.510;2023-12-20T01:02:24;2.90;;;1.47;;
7661;SDS011;30314;48.184;11.510;2023-12-20T01:04:50;2.77;;;1.47;;
7661;SDS011;30314;48.184;11.510;2023-12-20T01:07:17;2.60;;;1.00;;
7661;SDS011;30314;48.184;11.510;2023-12-20T01:09:44;2.30;;;1.20;;
7661;SDS011;30314;48.184;11.510;2023-12-20T01:12:10;2.27;;;0.97;;
7661;SDS011;30314;48.184;11.510;2023-12-20T01:14:37;1.97;;;0.90;;
7661;SDS011;30314;48.184;11.510;2023-12-20T01:17:05;2.30;;;1.20;;
7661;SDS011;30314;48.184;11.510;2023-12-20T01:19:32;2.63;;;1.00;;
7661;SDS011;30314;48.184;11.510;2023-12-20T01:21:58;1.90;;;0.83;;
7661;SDS011;30314;48.184;11.510;2023-12-20T01:24:25;1.43;;;0.73;;
7661;SDS011;30314;48.184;11.510;2023-12-20T01:26:52;1.60;;;1.00;;
7661;SDS011;30314;48.184;11.510;2023-12-20T01:29:18;1.30;;;0.83;;
7661;SDS011;30314;48.184;11.510;2023-12-20T01:31:45;1.63;;;0.93;;
7661;SDS011;30314;48.184;11.510;2023-12-20T01:34:12;1.57;;;0.77;;
7661;SDS011;30314;48.184;11.510;2023-12-20T01:36:39;1.67;;;1.00;;
7661;SDS011;30314;48.184;11.510;2023-12-20T01:39:05;2.70;;;0.80;;
7661;SDS011;30314;48.184;11.510;2023-12-20T01:41:49;2.57;;;1.17;;
7661;SDS011;30314;48.184;11.510;2023-12-20T01:44:16;1.80;;;1.20;;
7661;SDS011;30314;48.184;11.510;2023-12-20T01:46:42;2.30;;;1.07;;
7661;SDS011;30314;48.184;11.510;2023-12-20T01:49:09;2.00;;;1.23;;
7661;SDS011;30314;48.184;11.510;2023-12-20T01:51:36;1.40;;;1.00;;
7661;SDS011;30314;48.184;11.510;2023-12-20T01:54:02;1.73;;;0.90;;
7661;SDS011;30314;48.184;11.510;2023-12-20T01:56:30;2.37;;;1.20;;
7661;SDS011;30314;48.184;11.510;2023-12-20T01:58:58;1.40;;;0.70;;
7661;SDS011;30314;48.184;11.510;2023-12-20T02:01:26;2.40;;;0.73;;
7661;SDS011;30314;48.184;11.510;2023-12-20T02:03:55;1.77;;;0.80;;
7661;SDS011;30314;48.184;11.510;2023-12-20T02:06:23;1.13;;;0.43;;
7661;SDS011;30314;48.184;11.510;2023-12-20T02:08:54;2.23;;;1.03;;
7661;SDS011;30314;48.184;11.510;2023-12-20T02:11:21;1.90;;;0.73;;
7661;SDS011;30314;48.184;11.510;2023-12-20T02:13:47;1.73;;;0.97;;
7661;SDS011;30314;48.184;11.510;2023-12-20T02:16:14;1.60;;;0.53;;
7661;SDS011;30314;48.184;11.510;2023-12-20T02:18:42;1.93;;;0.93;;
7661;SDS011;30314;48.184;11.510;2023-12-20T02:21:10;1.60;;;0.70;;
7661;SDS011;30314;48.184;11.510;2023-12-20T02:23:37;1.73;;;0.80;;
7661;SDS011;30314;48.184;11.510;2023-12-20T02:26:04;1.43;;;0.70;;
7661;SDS011;30314;48.184;11.510;2023-12-20T02:28:31;2.67;;;0.80;;
7661;SDS011;30314;48.184;11.510;2023-12-20T02:30:58;1.47;;;0.63;;
7661;SDS011;30314;48.184;11.510;2023-12-20T02:33:25;1.73;;;0.50;;
7661;SDS011;30314;48.184;11.510;2023-12-20T02:35:51;3.50;;;0.50;;
7661;SDS011;30314;48.184;11.510;2023-12-20T02:38:19;1.73;;;0.80;;
7661;SDS011;30314;48.184;11.510;2023-12-20T02:40:45;1.63;;;0.90;;
7661;SDS011;30314;48.184;11.510;2023-12-20T02:43:15;1.30;;;0.40;;
7661;SDS011;30314;48.184;11.510;2023-12-20T02:45:42;1.60;;;0.80;;
7661;SDS011;30314;48.184;11.510;2023-12-20T02:48:09;1.23;;;0.57;;
7661;SDS011;30314;48.184;11.510;2023-12-20T02:50:36;1.23;;;0.60;;
7661;SDS011;30314;48.184;11.510;2023-12-20T02:53:02;0.90;;;0.47;;
7661;SDS011;30314;48.184;11.510;2023-12-20T02:55:29;0.97;;;0.30;;
7661;SDS011;30314;48.184;11.510;2023-12-20T02:57:56;1.37;;;0.53;;
7661;SDS011;30314;48.184;11.510;2023-12-20T03:00:22;1.40;;;0.60;;
7661;SDS011;30314;48.184;11.510;2023-12-20T03:02:49;2.80;;;0.40;;
7661;SDS011;30314;48.184;11.510;2023-12-20T03:05:16;0.77;;;0.40;;
7661;SDS011;30314;48.184;11.510;2023-12-20T03:07:43;0.97;;;0.40;;
7661;SDS011;30314;48.184;11.510;2023-12-20T03:10:10;2.20;;;1.00;;
7661;SDS011;30314;48.184;11.510;2023-12-20T03:12:48;1.40;;;0.50;;
7661;SDS011;30314;48.184;11.510;2023-12-20T03:15:15;1.07;;;0.50;;
7661;SDS011;30314;48.184;11.510;2023-12-20T03:17:42;0.70;;;0.40;;
7661;SDS011;30314;48.184;11.510;2023-12-20T03:20:09;1.53;;;0.40;;
7661;SDS011;30314;48.184;11.510;2023-12-20T03:22:36;0.90;;;0.30;;
7661;SDS011;30314;48.184;11.510;2023-12-20T03:25:02;0.90;;;0.43;;
7661;SDS011;30314;48.184;11.510;2023-12-20T03:27:29;0.80;;;0.30;;
7661;SDS011;30314;48.184;11.510;2023-12-20T03:29:56;1.60;;;0.40;;
7661;SDS011;30314;48.184;11.510;2023-12-20T03:32:22;0.87;;;0.40;;
7661;SDS011;30314;48.184;11.510;2023-12-20T03:34:49;0.80;;;0.30;;
7661;SDS011;30314;48.184;11.510;2023-12-20T03:37:15;0.90;;;0.50;;
7661;SDS011;30314;48.184;11.510;2023-12-20T03:39:42;0.90;;;0.40;;
7661;SDS011;30314;48.184;11.510;2023-12-20T03:42:09;2.23;;;0.53;;
7661;SDS011;30314;48.184;11.510;2023-12-20T03:44:38;1.20;;;0.40;;
7661;SDS011;30314;48.184;11.510;2023-12-20T03:47:05;1.37;;;0.40;;
7661;SDS011;30314;48.184;11.510;2023-12-20T03:49:32;1.50;;;0.50;;
7661;SDS011;30314;48.184;11.510;2023-12-20T03:51:59;0.93;;;0.47;;
7661;SDS011;30314;48.184;11.510;2023-12-20T03:54:26;1.00;;;0.50;;
7661;SDS011;30314;48.184;11.510;2023-12-20T03:56:52;1.07;;;0.47;;
7661;SDS011;30314;48.184;11.510;2023-12-20T03:59:19;0.90;;;0.47;;
7661;SDS011;30314;48.184;11.510;2023-12-20T04:01:46;1.10;;;0.40;;
7661;SDS011;30314;48.184;11.510;2023-12-20T04:04:13;1.57;;;0.50;;
7661;SDS011;30314;48.184;11.510;2023-12-20T04:06:40;1.97;;;0.40;;
7661;SDS011;30314;48.184;11.510;2023-12-20T04:09:07;1.63;;;0.40;;
7661;SDS011;30314;48.184;11.510;2023-12-20T04:11:36;1.20;;;0.70;;
7661;SDS011;30314;48.184;11.510;2023-12-20T04:14:04;1.57;;;0.70;;
7661;SDS011;30314;48.184;11.510;2023-12-20T04:16:34;1.77;;;0.57;;
7661;SDS011;30314;48.184;11.510;2023-12-20T04:19:01;1.03;;;0.37;;
7661;SDS011;30314;48.184;11.510;2023-12-20T04:21:28;2.10;;;0.60;;
7661;SDS011;30314;48.184;11.510;2023-12-20T04:23:54;1.53;;;0.50;;
7661;SDS011;30314;48.184;11.510;2023-12-20T04:26:21;1.40;;;0.60;;
7661;SDS011;30314;48.184;11.510;2023-12-20T04:28:47;1.30;;;0.57;;
7661;SDS011;30314;48.184;11.510;2023-12-20T04:31:14;1.50;;;0.50;;
7661;SDS011;30314;48.184;11.510;2023-12-20T04:33:41;0.90;;;0.40;;
7661;SDS011;30314;48.184;11.510;2023-12-20T04:36:07;1.47;;;0.80;;
7661;SDS011;30314;48.184;11.510;2023-12-20T04:38:36;1.53;;;0.57;;
7661;SDS011;30314;48.184;11.510;2023-12-20T04:41:02;0.97;;;0.50;;
7661;SDS011;30314;48.184;11.510;2023-12-20T04:43:29;1.20;;;0.50;;
7661;SDS011;30314;48.184;11.510;2023-12-20T04:45:56;1.60;;;0.80;;
7661;SDS011;30314;48.184;11.510;2023-12-20T04:48:22;1.53;;;0.90;;
7661;SDS011;30314;48.184;11.510;2023-12-20T04:50:49;1.20;;;0.60;;
7661;SDS011;30314;48.184;11.510;2023-12-20T04:53:15;1.20;;;0.60;;
7661;SDS011;30314;48.184;11.510;2023-12-20T04:55:42;1.50;;;0.80;;
7661;SDS011;30314;48.184;11.510;2023-12-20T04:58:09;3.33;;;0.70;;
7661;SDS011;30314;48.184;11.510;2023-12-20T05:00:35;3.10;;;1.00;;
7661;SDS011;30314;48.184;11.510;2023-12-20T05:03:02;3.27;;;0.97;;
7661;SDS011;30314;48.184;11.510;2023-12-20T05:05:28;6.30;;;1.10;;
7661;SDS011;30314;48.184;11.510;2023-12-20T05:07:55;2.67;;;1.50;;
7661;SDS011;30314;48.184;11.510;2023-12-20T05:10:22;1.77;;;1.27;;
7661;SDS011;30314;48.184;11.510;2023-12-20T05:12:48;1.70;;;1.00;;
7661;SDS011;30314;48.184;11.510;2023-12-20T05:15:15;2.30;;;1.60;;
7661;SDS011;30314;48.184;11.510;2023-12-20T05:17:42;3.13;;;1.90;;
7661;SDS011;30314;48.184;11.510;2023-12-20T05:20:08;2.40;;;1.60;;
7661;SDS011;30314;48.184;11.510;2023-12-20T05:22:35;3.20;;;2.17;;
7661;SDS011;30314;48.184;11.510;2023-12-20T05:25:02;4.50;;;1.67;;
7661;SDS011;30314;48.184;11.510;2023-12-20T05:27:29;3.10;;;1.80;;
7661;SDS011;30314;48.184;11.510;2023-12-20T05:29:55;3.50;;;1.90;;
7661;SDS011;30314;48.184;11.510;2023-12-20T05:32:24;2.30;;;1.60;;
7661;SDS011;30314;48.184;11.510;2023-12-20T05:34:51;3.67;;;2.00;;
7661;SDS011;30314;48.184;11.510;2023-12-20T05:37:18;3.33;;;2.07;;
7661;SDS011;30314;48.184;11.510;2023-12-20T05:39:45;2.90;;;2.47;;
7661;SDS011;30314;48.184;11.510;2023-12-20T05:42:12;3.13;;;1.60;;
7661;SDS011;30314;48.184;11.510;2023-12-20T05:44:38;3.67;;;2.07;;
7661;SDS011;30314;48.184;11.510;2023-12-20T05:47:05;2.70;;;1.93;;
7661;SDS011;30314;48.184;11.510;2023-12-20T05:49:32;2.20;;;2.00;;
7661;SDS011;30314;48.184;11.510;2023-12-20T05:51:58;2.50;;;1.30;;
7661;SDS011;30314;48.184;11.510;2023-12-20T05:54:25;2.57;;;1.60;;
7661;SDS011;30314;48.184;11.510;2023-12-20T05:56:51;2.70;;;1.63;;
7661;SDS011;30314;48.184;11.510;2023-12-20T05:59:21;2.67;;;1.90;;
7661;SDS011;30314;48.184;11.510;2023-12-20T06:01:47;2.60;;;1.60;;
7661;SDS011;30314;48.184;11.510;2023-12-20T06:04:14;2.97;;;2.00;;
7661;SDS011;30314;48.184;11.510;2023-12-20T06:06:41;2.43;;;1.70;;
7661;SDS011;30314;48.184;11.510;2023-12-20T06:09:09;3.00;;;1.93;;
7661;SDS011;30314;48.184;11.510;2023-12-20T06:11:35;3.07;;;1.90;;
7661;SDS011;30314;48.184;11.510;2023-12-20T06:14:02;4.80;;;1.90;;
7661;SDS011;30314;48.184;11.510;2023-12-20T06:16:29;2.40;;;1.90;;
7661;SDS011;30314;48.184;11.510;2023-12-20T06:18:55;3.03;;;1.83;;
7661;SDS011;30314;48.184;11.510;2023-12-20T06:21:22;3.30;;;2.10;;
7661;SDS011;30314;48.184;11.510;2023-12-20T06:23:48;3.50;;;2.40;;
7661;SDS011;30314;48.184;11.510;2023-12-20T06:26:15;3.40;;;2.10;;
7661;SDS011;30314;48.184;11.510;2023-12-20T06:28:42;3.90;;;1.90;;
7661;SDS011;30314;48.184;11.510;2023-12-20T06:31:09;8.53;;;2.13;;
7661;SDS011;30314;48.184;11.510;2023-12-20T06:33:35;2.40;;;1.63;;
7661;SDS011;30314;48.184;11.510;2023-12-20T06:36:02;4.50;;;1.90;;
7661;SDS011;30314;48.184;11.510;2023-12-20T06:38:29;4.37;;;2.07;;
7661;SDS011;30314;48.184;11.510;2023-12-20T06:40:56;3.97;;;2.07;;
7661;SDS011;30314;48.184;11.510;2023-12-20T06:43:24;3.00;;;1.80;;
7661;SDS011;30314;48.184;11.510;2023-12-20T06:46:08;2.63;;;1.70;;
7661;SDS011;30314;48.184;11.510;2023-12-20T06:48:35;3.20;;;2.10;;
7661;SDS011;30314;48.184;11.510;2023-12-20T06:51:02;3.43;;;1.87;;
7661;SDS011;30314;48.184;11.510;2023-12-20T06:53:29;3.40;;;2.00;;
7661;SDS011;30314;48.184;11.510;2023-12-20T06:55:56;2.43;;;1.67;;
7661;SDS011;30314;48.184;11.510;2023-12-20T06:58:23;3.03;;;1.50;;
7661;SDS011;30314;48.184;11.510;2023-12-20T07:00:50;3.60;;;1.97;;
7661;SDS011;30314;48.184;11.510;2023-12-20T07:03:18;1.70;;;1.40;;
7661;SDS011;30314;48.184;11.510;2023-12-20T07:05:44;2.23;;;1.40;;
7661;SDS011;30314;48.184;11.510;2023-12-20T07:08:11;2.87;;;1.80;;
7661;SDS011;30314;48.184;11.510;2023-12-20T07:10:39;2.53;;;1.40;;
7661;SDS011;30314;48.184;11.510;2023-12-20T07:13:06;3.70;;;1.83;;
7661;SDS011;30314;48.184;11.510;2023-12-20T07:15:34;3.33;;;1.77;;
7661;SDS011;30314;48.184;11.510;2023-12-20T07:18:02;1.67;;;0.80;;
7661;SDS011;30314;48.184;11.510;2023-12-20T07:20:29;2.53;;;1.30;;
7661;SDS011;30314;48.184;11.510;2023-12-20T07:22:55;2.13;;;1.10;;
7661;SDS011;30314;48.184;11.510;2023-12-20T07:25:22;2.50;;;1.33;;
7661;SDS011;30314;48.184;11.510;2023-12-20T07:27:48;3.13;;;1.33;;
7661;SDS011;30314;48.184;11.510;2023-12-20T07:30:15;2.20;;;1.13;;
7661;SDS011;30314;48.184;11.510;2023-12-20T07:32:42;3.33;;;1.30;;
7661;SDS011;30314;48.184;11.510;2023-12-20T07:35:09;1.77;;;1.13;;
7661;SDS011;30314;48.184;11.510;2023-12-20T07:37:35;1.50;;;0.90;;
7661;SDS011;30314;48.184;11.510;2023-12-20T07:40:02;1.23;;;0.77;;
7661;SDS011;30314;48.184;11.510;2023-12-20T07:42:29;4.10;;;0.90;;
7661;SDS011;30314;48.184;11.510;2023-12-20T07:44:56;1.87;;;0.90;;
7661;SDS011;30314;48.184;11.510;2023-12-20T07:47:23;1.93;;;0.80;;
7661;SDS011;30314;48.184;11.510;2023-12-20T07:49:49;2.50;;;1.00;;
7661;SDS011;30314;48.184;11.510;2023-12-20T07:52:18;1.33;;;0.60;;
7661;SDS011;30314;48.184;11.510;2023-12-20T07:54:45;1.40;;;0.63;;
7661;SDS011;30314;48.184;11.510;2023-12-20T07:57:12;0.97;;;0.63;;
7661;SDS011;30314;48.184;11.510;2023-12-20T07:59:39;1.67;;;0.80;;
7661;SDS011;30314;48.184;11.510;2023-12-20T08:02:06;1.00;;;0.60;;
7661;SDS011;30314;48.184;11.510;2023-12-20T08:04:33;1.10;;;0.43;;
7661;SDS011;30314;48.184;11.510;2023-12-20T08:06:59;1.60;;;0.80;;
7661;SDS011;30314;48.184;11.510;2023-12-20T08:09:26;3.47;;;0.90;;
7661;SDS011;30314;48.184;11.510;2023-12-20T08:11:53;2.13;;;0.90;;
7661;SDS011;30314;48.184;11.510;2023-12-20T08:14:19;1.53;;;0.93;;
7661;SDS011;30314;48.184;11.510;2023-12-20T08:16:46;1.10;;;0.50;;
7661;SDS011;30314;48.184;11.510;2023-12-20T08:19:13;1.30;;;0.70;;
7661;SDS011;30314;48.184;11.510;2023-12-20T08:21:40;1.23;;;0.60;;
7661;SDS011;30314;48.184;11.510;2023-12-20T08:24:08;1.60;;;0.70;;
7661;SDS011;30314;48.184;11.510;2023-12-20T08:26:34;1.40;;;0.77;;
7661;SDS011;30314;48.184;11.510;2023-12-20T08:29:01;1.20;;;0.60;;
7661;SDS011;30314;48.184;11.510;2023-12-20T08:31:28;1.07;;;0.53;;
7661;SDS011;30314;48.184;11.510;2023-12-20T08:33:55;1.20;;;0.80;;
7661;SDS011;30314;48.184;11.510;2023-12-20T08:36:22;1.30;;;0.53;;
7661;SDS011;30314;48.184;11.510;2023-12-20T08:38:50;4.10;;;0.70;;
7661;SDS011;30314;48.184;11.510;2023-12-20T08:41:17;1.10;;;0.50;;
7661;SDS011;30314;48.184;11.510;2023-12-20T08:43:44;1.13;;;0.70;;
7661;SDS011;30314;48.184;11.510;2023-12-20T08:46:11;0.90;;;0.50;;
7661;SDS011;30314;48.184;11.510;2023-12-20T08:48:38;1.20;;;0.60;;
7661;SDS011;30314;48.184;11.510;2023-12-20T08:51:05;1.20;;;0.77;;
7661;SDS011;30314;48.184;11.510;2023-12-20T08:53:35;1.17;;;0.70;;
7661;SDS011;30314;48.184;11.510;2023-12-20T08:56:02;0.80;;;0.40;;
7661;SDS011;30314;48.184;11.510;2023-12-20T08:58:29;1.50;;;0.70;;
7661;SDS011;30314;48.184;11.510;2023-12-20T09:00:55;1.03;;;0.57;;
7661;SDS011;30314;48.184;11.510;2023-12-20T09:03:23;1.60;;;0.90;;
7661;SDS011;30314;48.184;11.510;2023-12-20T09:05:50;9.87;;;0.73;;
7661;SDS011;30314;48.184;11.510;2023-12-20T09:08:17;2.40;;;0.77;;
7661;SDS011;30314;48.184;11.510;2023-12-20T09:10:43;1.00;;;0.50;;
7661;SDS011;30314;48.184;11.510;2023-12-20T09:13:11;0.83;;;0.30;;
7661;SDS011;30314;48.184;11.510;2023-12-20T09:15:38;1.47;;;0.53;;
7661;SDS011;30314;48.184;11.510;2023-12-20T09:18:04;1.37;;;0.70;;
7661;SDS011;30314;48.184;11.510;2023-12-20T09:20:31;1.67;;;0.50;;
7661;SDS011;30314;48.184;11.510;2023-12-20T09:22:59;1.40;;;0.60;;
7661;SDS011;30314;48.184;11.510;2023-12-20T09:25:25;1.00;;;0.50;;
7661;SDS011;30314;48.184;11.510;2023-12-20T09:27:52;3.23;;;0.60;;
7661;SDS011;30314;48.184;11.510;2023-12-20T09:30:19;1.73;;;1.33;;
7661;SDS011;30314;48.184;11.510;2023-12-20T09:32:53;1.40;;;0.43;;
7661;SDS011;30314;48.184;11.510;2023-12-20T09:35:20;1.23;;;0.53;;
7661;SDS011;30314;48.184;11.510;2023-12-20T09:37:47;1.43;;;0.87;;
7661;SDS011;30314;48.184;11.510;2023-12-20T09:40:14;1.00;;;0.60;;
7661;SDS011;30314;48.184;11.510;2023-12-20T09:45:19;1.10;;;0.50;;
7661;SDS011;30314;48.184;11.510;2023-12-20T09:47:53;1.03;;;0.70;;
7661;SDS011;30314;48.184;11.510;2023-12-20T09:50:23;3.33;;;0.90;;
7661;SDS011;30314;48.184;11.510;2023-12-20T09:52:51;2.83;;;0.63;;
7661;SDS011;30314;48.184;11.510;2023-12-20T09:55:19;2.17;;;1.17;;
7661;SDS011;30314;48.184;11.510;2023-12-20T09:57:47;1.43;;;0.70;;
7661;SDS011;30314;48.184;11.510;2023-12-20T10:00:15;1.33;;;0.60;;
7661;SDS011;30314;48.184;11.510;2023-12-20T10:02:50;1.60;;;0.87;;
7661;SDS011;30314;48.184;11.510;2023-12-20T10:05:26;1.80;;;1.00;;
7661;SDS011;30314;48.184;11.510;2023-12-20T10:07:58;1.83;;;1.10;;
7661;SDS011;30314;48.184;11.510;2023-12-20T10:10:26;3.87;;;1.57;;
7661;SDS011;30314;48.184;11.510;2023-12-20T10:13:08;2.33;;;1.13;;
7661;SDS011;30314;48.184;11.510;2023-12-20T10:15:36;1.83;;;1.07;;
7661;SDS011;30314;48.184;11.510;2023-12-20T10:18:04;1.33;;;0.83;;
7661;SDS011;30314;48.184;11.510;2023-12-20T10:20:31;1.27;;;0.90;;
7661;SDS011;30314;48.184;11.510;2023-12-20T10:22:58;1.93;;;0.90;;
7661;SDS011;30314;48.184;11.510;2023-12-20T10:25:26;2.57;;;0.60;;
7661;SDS011;30314;48.184;11.510;2023-12-20T10:30:41;4.20;;;1.37;;
7661;SDS011;30314;48.184;11.510;2023-12-20T10:33:09;2.90;;;1.00;;
7661;SDS011;30314;48.184;11.510;2023-12-20T10:35:39;3.90;;;1.13;;
7661;SDS011;30314;48.184;11.510;2023-12-20T10:38:11;1.77;;;0.40;;
7661;SDS011;30314;48.184;11.510;2023-12-20T10:40:40;1.87;;;1.10;;
7661;SDS011;30314;48.184;11.510;2023-12-20T10:43:07;3.00;;;0.80;;
7661;SDS011;30314;48.184;11.510;2023-12-20T10:45:35;1.27;;;0.80;;
7661;SDS011;30314;48.184;11.510;2023-12-20T10:48:02;2.30;;;0.90;;
7661;SDS011;30314;48.184;11.510;2023-12-20T10:50:30;1.60;;;1.23;;
7661;SDS011;30314;48.184;11.510;2023-12-20T10:52:58;1.00;;;0.60;;
7661;SDS011;30314;48.184;11.510;2023-12-20T10:55:25;2.17;;;0.90;;
7661;SDS011;30314;48.184;11.510;2023-12-20T10:58:00;1.83;;;0.97;;
7661;SDS011;30314;48.184;11.510;2023-12-20T11:00:29;1.00;;;0.50;;
7661;SDS011;30314;48.184;11.510;2023-12-20T11:03:00;1.00;;;0.60;;
7661;SDS011;30314;48.184;11.510;2023-12-20T11:08:33;1.90;;;1.17;;
7661;SDS011;30314;48.184;11.510;2023-12-20T11:11:13;1.80;;;1.23;;
7661;SDS011;30314;48.184;11.510;2023-12-20T11:14:06;1.50;;;0.90;;
7661;SDS011;30314;48.184;11.510;2023-12-20T11:16:38;2.50;;;0.97;;
7661;SDS011;30314;48.184;11.510;2023-12-20T11:19:17;2.60;;;1.43;;
7661;SDS011;30314;48.184;11.510;2023-12-20T11:21:45;2.17;;;0.90;;
7661;SDS011;30314;48.184;11.510;2023-12-20T11:24:13;2.87;;;1.40;;
7661;SDS011;30314;48.184;11.510;2023-12-20T11:26:39;1.77;;;1.13;;
7661;SDS011;30314;48.184;11.510;2023-12-20T11:29:29;3.33;;;1.37;;
7661;SDS011;30314;48.184;11.510;2023-12-20T11:32:00;1.47;;;0.80;;
7661;SDS011;30314;48.184;11.510;2023-12-20T11:34:28;2.40;;;1.20;;
7661;SDS011;30314;48.184;11.510;2023-12-20T11:37:00;2.13;;;1.20;;
7661;SDS011;30314;48.184;11.510;2023-12-20T11:39:29;2.80;;;1.27;;
7661;SDS011;30314;48.184;11.510;2023-12-20T11:41:57;2.00;;;1.30;;
7661;SDS011;30314;48.184;11.510;2023-12-20T11:44:30;3.20;;;1.07;;
7661;SDS011;30314;48.184;11.510;2023-12-20T11:46:57;2.40;;;1.67;;
7661;SDS011;30314;48.184;11.510;2023-12-20T11:49:24;1.73;;;0.83;;
7661;SDS011;30314;48.184;11.510;2023-12-20T11:51:51;1.70;;;0.77;;
7661;SDS011;30314;48.184;11.510;2023-12-20T11:54:18;1.57;;;0.97;;
7661;SDS011;30314;48.184;11.510;2023-12-20T11:56:45;1.90;;;1.43;;
7661;SDS011;30314;48.184;11.510;2023-12-20T11:59:12;1.80;;;1.10;;
7661;SDS011;30314;48.184;11.510;2023-12-20T12:01:49;3.40;;;1.20;;
7661;SDS011;30314;48.184;11.510;2023-12-20T12:04:17;1.63;;;1.03;;
7661;SDS011;30314;48.184;11.510;2023-12-20T12:06:44;2.20;;;0.93;;
7661;SDS011;30314;48.184;11.510;2023-12-20T12:09:11;1.90;;;1.00;;
7661;SDS011;30314;48.184;11.510;2023-12-20T12:11:38;1.60;;;1.00;;
7661;SDS011;30314;48.184;11.510;2023-12-20T12:14:05;2.53;;;1.50;;
7661;SDS011;30314;48.184;11.510;2023-12-20T12:16:31;1.70;;;1.00;;
7661;SDS011;30314;48.184;11.510;2023-12-20T12:18:59;1.60;;;1.07;;
7661;SDS011;30314;48.184;11.510;2023-12-20T12:21:26;3.40;;;1.60;;
7661;SDS011;30314;48.184;11.510;2023-12-20T12:24:08;1.20;;;0.67;;
7661;SDS011;30314;48.184;11.510;2023-12-20T12:26:35;1.50;;;0.83;;
7661;SDS011;30314;48.184;11.510;2023-12-20T12:29:02;1.83;;;1.23;;
7661;SDS011;30314;48.184;11.510;2023-12-20T12:31:29;2.20;;;1.30;;
7661;SDS011;30314;48.184;11.510;2023-12-20T12:33:56;1.93;;;1.17;;
7661;SDS011;30314;48.184;11.510;2023-12-20T12:36:23;1.73;;;1.23;;
7661;SDS011;30314;48.184;11.510;2023-12-20T12:38:50;1.17;;;0.77;;
7661;SDS011;30314;48.184;11.510;2023-12-20T12:41:17;1.57;;;0.97;;
7661;SDS011;30314;48.184;11.510;2023-12-20T12:43:43;1.77;;;1.20;;
7661;SDS011;30314;48.184;11.510;2023-12-20T12:46:10;2.53;;;1.30;;
7661;SDS011;30314;48.184;11.510;2023-12-20T12:48:37;1.70;;;1.00;;
7661;SDS011;30314;48.184;11.510;2023-12-20T12:51:04;1.97;;;1.33;;
7661;SDS011;30314;48.184;11.510;2023-12-20T12:53:30;3.43;;;1.80;;
7661;SDS011;30314;48.184;11.510;2023-12-20T12:55:57;1.53;;;1.07;;
7661;SDS011;30314;48.184;11.510;2023-12-20T12:58:24;1.43;;;1.10;;
7661;SDS011;30314;48.184;11.510;2023-12-20T13:00:52;2.20;;;1.53;;
7661;SDS011;30314;48.184;11.510;2023-12-20T13:03:19;1.73;;;1.10;;
7661;SDS011;30314;48.184;11.510;2023-12-20T13:05:46;3.27;;;1.70;;
7661;SDS011;30314;48.184;11.510;2023-12-20T13:08:14;2.03;;;0.83;;
7661;SDS011;30314;48.184;11.510;2023-12-20T13:10:41;1.20;;;0.90;;
7661;SDS011;30314;48.184;11.510;2023-12-20T13:13:08;1.47;;;1.03;;
7661;SDS011;30314;48.184;11.510;2023-12-20T13:15:34;1.50;;;1.03;;
7661;SDS011;30314;48.184;11.510;2023-12-20T13:18:01;3.07;;;1.13;;
7661;SDS011;30314;48.184;11.510;2023-12-20T13:20:29;2.53;;;1.00;;
7661;SDS011;30314;48.184;11.510;2023-12-20T13:22:55;1.77;;;1.10;;
7661;SDS011;30314;48.184;11.510;2023-12-20T13:25:22;3.40;;;1.20;;
7661;SDS011;30314;48.184;11.510;2023-12-20T13:27:48;2.10;;;1.47;;
7661;SDS011;30314;48.184;11.510;2023-12-20T13:30:18;1.33;;;0.90;;
7661;SDS011;30314;48.184;11.510;2023-12-20T13:32:45;3.30;;;1.60;;
7661;SDS011;30314;48.184;11.510;2023-12-20T13:35:11;3.90;;;1.27;;
7661;SDS011;30314;48.184;11.510;2023-12-20T13:37:38;4.50;;;1.63;;
7661;SDS011;30314;48.184;11.510;2023-12-20T13:40:06;3.40;;;1.10;;
7661;SDS011;30314;48.184;11.510;2023-12-20T13:42:35;1.73;;;1.10;;
7661;SDS011;30314;48.184;11.510;2023-12-20T13:45:02;5.97;;;1.87;;
7661;SDS011;30314;48.184;11.510;2023-12-20T13:47:31;2.23;;;1.47;;
7661;SDS011;30314;48.184;11.510;2023-12-20T13:49:59;4.17;;;2.23;;
7661;SDS011;30314;48.184;11.510;2023-12-20T13:52:26;6.17;;;1.50;;
7661;SDS011;30314;48.184;11.510;2023-12-20T13:54:53;1.87;;;1.37;;
7661;SDS011;30314;48.184;11.510;2023-12-20T13:57:20;2.27;;;1.43;;
7661;SDS011;30314;48.184;11.510;2023-12-20T14:00:06;5.53;;;1.40;;
7661;SDS011;30314;48.184;11.510;2023-12-20T14:02:41;6.67;;;2.00;;
7661;SDS011;30314;48.184;11.510;2023-12-20T14:05:09;2.33;;;1.17;;
7661;SDS011;30314;48.184;11.510;2023-12-20T14:07:37;1.80;;;1.17;;
7661;SDS011;30314;48.184;11.510;2023-12-20T14:10:04;1.67;;;0.80;;
7661;SDS011;30314;48.184;11.510;2023-12-20T14:12:32;4.20;;;1.90;;
7661;SDS011;30314;48.184;11.510;2023-12-20T14:15:02;4.17;;;1.30;;
7661;SDS011;30314;48.184;11.510;2023-12-20T14:17:29;4.13;;;1.80;;
7661;SDS011;30314;48.184;11.510;2023-12-20T14:19:58;4.30;;;1.67;;
7661;SDS011;30314;48.184;11.510;2023-12-20T14:22:25;2.90;;;1.57;;
7661;SDS011;30314;48.184;11.510;2023-12-20T14:24:52;2.23;;;0.97;;
7661;SDS011;30314;48.184;11.510;2023-12-20T14:27:20;2.13;;;1.27;;
7661;SDS011;30314;48.184;11.510;2023-12-20T14:29:50;6.70;;;1.60;;
7661;SDS011;30314;48.184;11.510;2023-12-20T14:32:17;5.03;;;1.53;;
7661;SDS011;30314;48.184;11.510;2023-12-20T14:34:43;4.77;;;2.07;;
7661;SDS011;30314;48.184;11.510;2023-12-20T14:37:10;3.60;;;1.70;;
7661;SDS011;30314;48.184;11.510;2023-12-20T14:39:38;4.73;;;1.50;;
7661;SDS011;30314;48.184;11.510;2023-12-20T14:42:08;1.60;;;1.20;;
7661;SDS011;30314;48.184;11.510;2023-12-20T14:44:40;2.00;;;1.33;;
7661;SDS011;30314;48.184;11.510;2023-12-20T14:47:10;4.07;;;1.57;;
7661;SDS011;30314;48.184;11.510;2023-12-20T14:49:36;4.03;;;1.80;;
7661;SDS011;30314;48.184;11.510;2023-12-20T14:52:04;2.93;;;1.70;;
7661;SDS011;30314;48.184;11.510;2023-12-20T14:54:31;4.77;;;1.47;;
7661;SDS011;30314;48.184;11.510;2023-12-20T14:56:57;5.53;;;1.33;;
7661;SDS011;30314;48.184;11.510;2023-12-20T14:59:31;6.23;;;3.33;;